Time;durP1;ratioP1;P1;durP2;ratioP2;P2;SDS_P1;SDS_P2;PMS_P1;PMS_P2;Temp;Humidity;BMP_temperature;BMP_pressure;BME280_temperature;BME280_humidity;BME280_pressure;Samples;Min_cycle;Max_cycle;Signal;HPM_P1;HPM_P2
2021/10/29 00:01:24;;;;;;;108.47;41.60;;;6.90;99.90;;;;;;5047381;28;20114;-77
2021/10/29 00:03:51;;;;;;;109.10;41.78;;;7.00;99.90;;;;;;5029571;28;20064;-75
2021/10/29 00:06:18;;;;;;;118.18;44.53;;;7.00;99.90;;;;;;5030284;28;20053;-76
2021/10/29 00:08:45;;;;;;;111.07;42.28;;;6.90;99.90;;;;;;5030305;28;20055;-76
2021/10/29 00:11:12;;;;;;;107.18;40.55;;;7.00;99.90;;;;;;5047397;28;20693;-76
2021/10/29 00:13:38;;;;;;;114.35;44.25;;;7.00;99.90;;;;;;5048135;28;20118;-76
2021/10/29 00:16:05;;;;;;;117.22;41.72;;;7.00;99.90;;;;;;5046350;28;20048;-78
2021/10/29 00:18:32;;;;;;;111.55;41.70;;;6.90;99.90;;;;;;5046505;28;20041;-76
2021/10/29 00:21:00;;;;;;;112.78;41.58;;;6.90;99.90;;;;;;5028667;28;20136;-77
2021/10/29 00:23:28;;;;;;;116.25;43.22;;;7.00;99.90;;;;;;5013836;28;20431;-76
2021/10/29 00:25:54;;;;;;;117.00;41.75;;;6.90;99.90;;;;;;5043744;28;20451;-76
2021/10/29 00:28:21;;;;;;;116.53;41.05;;;6.90;99.90;;;;;;5046094;28;20053;-76
2021/10/29 00:30:48;;;;;;;102.10;39.67;;;6.90;99.90;;;;;;5025716;28;20132;-77
2021/10/29 00:33:16;;;;;;;119.45;42.38;;;6.90;99.90;;;;;;5042072;28;20127;-77
2021/10/29 00:35:44;;;;;;;115.13;43.55;;;6.90;99.90;;;;;;5046252;28;20057;-75
2021/10/29 00:38:11;;;;;;;113.40;42.08;;;6.90;99.90;;;;;;5030508;28;20055;-76
2021/10/29 00:40:39;;;;;;;119.72;41.92;;;6.90;99.90;;;;;;5028768;28;20045;-76
2021/10/29 00:43:07;;;;;;;111.53;41.10;;;6.90;99.90;;;;;;5029698;28;20057;-76
2021/10/29 00:45:35;;;;;;;106.57;41.03;;;6.90;99.90;;;;;;5047256;28;20053;-78
2021/10/29 00:48:02;;;;;;;108.50;40.28;;;6.90;99.90;;;;;;5046496;28;20064;-76
2021/10/29 00:50:30;;;;;;;98.13;37.40;;;6.80;99.90;;;;;;5028817;28;20053;-75
2021/10/29 00:52:57;;;;;;;113.97;42.03;;;6.90;99.90;;;;;;5046820;28;20515;-78
2021/10/29 00:55:25;;;;;;;105.45;39.70;;;6.80;99.90;;;;;;5012226;28;20082;-78
2021/10/29 00:57:52;;;;;;;116.45;45.13;;;6.80;99.90;;;;;;5046500;28;20060;-79
2021/10/29 01:00:23;;;;;;;118.57;42.22;;;6.80;99.90;;;;;;5032529;28;20290;-76
2021/10/29 01:02:55;;;;;;;116.38;41.22;;;6.80;99.90;;;;;;5038432;28;20049;-77
2021/10/29 01:05:23;;;;;;;117.55;40.67;;;6.80;99.90;;;;;;5028612;28;20052;-76
2021/10/29 01:07:50;;;;;;;111.93;40.28;;;6.80;99.90;;;;;;5047697;28;20387;-77
2021/10/29 01:10:17;;;;;;;116.68;41.78;;;6.80;99.90;;;;;;5027447;28;20061;-77
2021/10/29 01:12:44;;;;;;;115.53;39.25;;;6.80;99.90;;;;;;5029090;28;20103;-76
2021/10/29 01:15:11;;;;;;;119.82;42.05;;;6.90;99.90;;;;;;5046985;28;20557;-75
2021/10/29 01:17:38;;;;;;;122.82;41.63;;;6.80;99.90;;;;;;5026402;28;20486;-76
2021/10/29 01:20:06;;;;;;;115.40;39.92;;;6.80;99.90;;;;;;5025071;28;20048;-75
2021/10/29 01:22:34;;;;;;;118.10;40.33;;;6.80;99.90;;;;;;5045703;28;20225;-77
2021/10/29 01:25:01;;;;;;;118.68;41.38;;;6.80;99.90;;;;;;5046431;28;20053;-77
2021/10/29 01:27:27;;;;;;;120.10;39.58;;;6.80;99.90;;;;;;5045946;28;20044;-76
2021/10/29 01:29:54;;;;;;;120.60;39.90;;;6.80;99.90;;;;;;5027731;28;20041;-76
2021/10/29 01:32:23;;;;;;;115.95;40.78;;;6.80;99.90;;;;;;5027678;28;20045;-75
2021/10/29 01:34:50;;;;;;;107.05;38.30;;;6.80;99.90;;;;;;5042448;28;20114;-77
2021/10/29 01:37:17;;;;;;;109.45;35.78;;;6.80;99.90;;;;;;5028802;28;20049;-75
2021/10/29 01:39:44;;;;;;;107.72;37.58;;;6.80;99.90;;;;;;5045187;28;20500;-79
2021/10/29 01:42:11;;;;;;;123.53;39.78;;;6.80;99.90;;;;;;5027550;28;20041;-76
2021/10/29 01:44:40;;;;;;;118.95;40.63;;;6.80;99.90;;;;;;5047145;28;20403;-76
2021/10/29 01:47:07;;;;;;;104.80;36.42;;;6.80;99.90;;;;;;5012644;28;20041;-75
2021/10/29 01:49:35;;;;;;;105.55;36.42;;;6.80;99.90;;;;;;5046415;28;20212;-76
2021/10/29 01:52:02;;;;;;;110.97;38.08;;;6.80;99.90;;;;;;5024738;28;20045;-75
2021/10/29 01:54:29;;;;;;;101.30;37.97;;;6.90;99.90;;;;;;5027161;28;20095;-75
2021/10/29 01:56:57;;;;;;;94.05;34.83;;;6.80;99.90;;;;;;5045895;28;20056;-75
2021/10/29 01:59:24;;;;;;;104.68;34.33;;;6.80;99.90;;;;;;5051047;28;20053;-74
2021/10/29 02:01:52;;;;;;;105.22;37.63;;;6.80;99.90;;;;;;5031864;28;20053;-77
2021/10/29 02:04:20;;;;;;;95.22;36.22;;;6.90;99.90;;;;;;5050606;28;20053;-77
2021/10/29 02:06:47;;;;;;;103.75;38.03;;;6.80;99.90;;;;;;5041657;28;20053;-75
2021/10/29 02:09:14;;;;;;;102.78;38.50;;;6.90;99.90;;;;;;5025728;28;20098;-76
2021/10/29 02:11:41;;;;;;;101.13;37.75;;;6.90;99.90;;;;;;5048631;28;20517;-75
2021/10/29 02:14:08;;;;;;;94.05;36.20;;;6.90;99.90;;;;;;5050381;28;20159;-75
2021/10/29 02:16:36;;;;;;;101.72;37.42;;;6.90;99.90;;;;;;4998601;28;20056;-76
2021/10/29 02:19:03;;;;;;;104.85;38.63;;;6.80;99.90;;;;;;5050516;28;20291;-75
2021/10/29 02:21:31;;;;;;;110.72;38.88;;;6.70;99.90;;;;;;4995336;28;20531;-76
2021/10/29 02:23:58;;;;;;;108.47;39.05;;;6.80;99.90;;;;;;5030632;28;20504;-76
2021/10/29 02:26:25;;;;;;;114.55;38.95;;;6.80;99.90;;;;;;5011732;28;20115;-76
2021/10/29 02:28:53;;;;;;;107.28;39.63;;;6.80;99.90;;;;;;5048159;28;20634;-75
2021/10/29 02:31:20;;;;;;;110.57;37.58;;;6.80;99.90;;;;;;5049476;28;20487;-75
2021/10/29 02:33:47;;;;;;;102.85;35.83;;;6.80;99.90;;;;;;5031959;28;20095;-75
2021/10/29 02:36:13;;;;;;;115.63;39.30;;;6.80;99.90;;;;;;5049514;28;20049;-76
2021/10/29 02:38:40;;;;;;;108.85;36.15;;;6.80;99.90;;;;;;5050794;28;20061;-77
2021/10/29 02:41:07;;;;;;;108.35;38.17;;;6.80;99.90;;;;;;5048851;28;20076;-75
2021/10/29 02:43:34;;;;;;;105.85;37.60;;;6.80;99.90;;;;;;5050987;28;20507;-75
2021/10/29 02:46:00;;;;;;;106.55;37.55;;;6.80;99.90;;;;;;5031983;28;20061;-76
2021/10/29 02:48:27;;;;;;;109.15;36.35;;;6.80;99.90;;;;;;5032808;28;20110;-75
2021/10/29 02:50:55;;;;;;;104.38;38.17;;;6.80;99.90;;;;;;5029213;28;20107;-76
2021/10/29 02:53:24;;;;;;;102.03;36.75;;;6.80;99.90;;;;;;5027609;28;20057;-77
2021/10/29 02:55:51;;;;;;;94.60;35.75;;;6.90;99.90;;;;;;5031411;28;20087;-75
2021/10/29 02:58:18;;;;;;;105.55;36.63;;;6.90;99.90;;;;;;5032961;28;20049;-76
2021/10/29 03:00:45;;;;;;;94.05;35.28;;;6.80;99.90;;;;;;5032575;28;20140;-75
2021/10/29 03:03:12;;;;;;;92.80;35.30;;;6.80;99.90;;;;;;5050998;28;20458;-74
2021/10/29 03:05:40;;;;;;;96.45;34.22;;;6.90;99.90;;;;;;5049355;28;20065;-77
2021/10/29 03:08:07;;;;;;;86.60;33.63;;;7.00;99.90;;;;;;5014442;28;20527;-77
2021/10/29 03:10:34;;;;;;;79.97;33.42;;;7.10;99.90;;;;;;5049023;28;20289;-75
2021/10/29 03:13:01;;;;;;;78.78;32.65;;;7.10;99.90;;;;;;5050700;28;20060;-75
2021/10/29 03:15:27;;;;;;;72.68;31.13;;;7.20;99.90;;;;;;5015601;28;20395;-75
2021/10/29 03:17:54;;;;;;;63.10;28.75;;;7.20;99.90;;;;;;5050043;28;20056;-75
2021/10/29 03:20:21;;;;;;;63.67;29.80;;;7.30;99.90;;;;;;5047821;28;20648;-75
2021/10/29 03:22:48;;;;;;;65.90;29.25;;;7.40;99.90;;;;;;5050086;28;20049;-77
2021/10/29 03:25:15;;;;;;;60.90;27.98;;;7.40;99.90;;;;;;5031042;28;20055;-76
2021/10/29 03:27:42;;;;;;;65.20;28.13;;;7.50;99.90;;;;;;5031922;28;20584;-75
2021/10/29 03:30:10;;;;;;;55.42;26.35;;;7.60;99.90;;;;;;5044580;28;20128;-74
2021/10/29 03:32:37;;;;;;;57.85;26.77;;;7.70;99.90;;;;;;5030930;28;20053;-74
2021/10/29 03:35:06;;;;;;;50.42;24.88;;;7.70;99.90;;;;;;5040783;28;20140;-76
2021/10/29 03:40:23;;;;;;;50.53;24.17;;;7.70;99.90;;;;;;5050900;28;20049;-75
2021/10/29 03:43:07;;;;;;;48.35;23.73;;;7.80;99.90;;;;;;5028087;28;20053;-76
2021/10/29 03:45:42;;;;;;;48.53;23.33;;;7.80;99.90;;;;;;5046581;28;20053;-76
2021/10/29 03:48:10;;;;;;;52.13;24.23;;;7.90;99.90;;;;;;5027082;28;20535;-75
2021/10/29 03:50:41;;;;;;;52.78;24.25;;;7.90;99.90;;;;;;5049571;28;20123;-75
2021/10/29 03:53:24;;;;;;;46.45;23.52;;;8.00;99.90;;;;;;5049969;28;20427;-76
2021/10/29 03:55:54;;;;;;;44.33;22.38;;;8.00;99.90;;;;;;5052537;28;20056;-76
2021/10/29 03:58:20;;;;;;;42.58;22.38;;;8.00;99.90;;;;;;5015586;28;20103;-75
2021/10/29 04:00:47;;;;;;;43.67;20.23;;;8.00;99.90;;;;;;5043175;28;20048;-75
2021/10/29 04:03:14;;;;;;;45.55;20.98;;;8.10;99.90;;;;;;5004881;28;20108;-76
2021/10/29 04:05:41;;;;;;;41.88;21.92;;;8.10;99.90;;;;;;5025281;28;20296;-76
2021/10/29 04:08:10;;;;;;;40.88;22.42;;;8.10;99.90;;;;;;5031327;28;20036;-75
2021/10/29 04:10:42;;;;;;;50.58;25.30;;;8.10;99.90;;;;;;5048874;28;20491;-75
2021/10/29 04:13:11;;;;;;;45.40;23.20;;;8.10;99.90;;;;;;5015734;28;20075;-75
2021/10/29 04:15:40;;;;;;;50.15;24.80;;;8.10;99.90;;;;;;5014296;28;20048;-78
2021/10/29 04:18:08;;;;;;;46.10;24.25;;;8.00;99.90;;;;;;5032440;28;20063;-76
2021/10/29 04:20:36;;;;;;;52.15;24.08;;;8.00;99.90;;;;;;5047035;28;20251;-75
2021/10/29 04:23:03;;;;;;;58.80;26.10;;;7.90;99.90;;;;;;5030298;28;20068;-76
2021/10/29 04:25:30;;;;;;;52.58;25.67;;;7.90;99.90;;;;;;5048540;28;20110;-75
2021/10/29 04:27:59;;;;;;;58.88;28.00;;;7.90;99.90;;;;;;5049395;28;20507;-76
2021/10/29 04:30:29;;;;;;;59.35;27.35;;;7.90;99.90;;;;;;5049768;28;20068;-76
2021/10/29 04:32:57;;;;;;;52.58;26.02;;;7.70;99.90;;;;;;5051522;28;20110;-79
2021/10/29 04:35:25;;;;;;;58.40;26.83;;;7.70;99.90;;;;;;5030166;28;20037;-77
2021/10/29 04:37:52;;;;;;;62.00;29.92;;;7.70;99.90;;;;;;5036411;28;20056;-79
2021/10/29 04:40:19;;;;;;;56.83;29.00;;;7.60;99.90;;;;;;5032519;28;20193;-76
2021/10/29 04:42:46;;;;;;;59.60;28.13;;;7.50;99.90;;;;;;5031168;28;20053;-75
2021/10/29 04:45:13;;;;;;;64.85;29.33;;;7.50;99.90;;;;;;5046283;28;20037;-75
2021/10/29 04:47:40;;;;;;;55.65;27.17;;;7.50;99.90;;;;;;5050722;28;20991;-76
2021/10/29 04:50:07;;;;;;;61.08;27.75;;;7.50;99.90;;;;;;5051493;28;20041;-75
2021/10/29 04:52:34;;;;;;;64.03;31.90;;;7.60;99.90;;;;;;5052620;28;20580;-78
2021/10/29 04:55:01;;;;;;;66.13;30.52;;;7.50;99.90;;;;;;5052804;28;20499;-76
2021/10/29 04:57:28;;;;;;;69.00;32.35;;;7.50;99.90;;;;;;5034591;28;20478;-76
2021/10/29 04:59:57;;;;;;;68.47;31.05;;;7.40;99.90;;;;;;5050550;28;20087;-77
2021/10/29 05:02:24;;;;;;;76.55;33.47;;;7.40;99.90;;;;;;5046758;28;20049;-75
2021/10/29 05:04:51;;;;;;;68.45;29.67;;;7.40;99.90;;;;;;5029804;28;20057;-77
2021/10/29 05:07:18;;;;;;;72.35;32.63;;;7.40;99.90;;;;;;5048810;28;20047;-75
2021/10/29 05:09:45;;;;;;;77.63;34.72;;;7.40;99.90;;;;;;5047792;28;20040;-75
2021/10/29 05:12:11;;;;;;;76.10;32.90;;;7.40;99.90;;;;;;5046029;28;20466;-77
2021/10/29 05:14:38;;;;;;;87.60;35.75;;;7.40;99.90;;;;;;5046866;28;20098;-76
2021/10/29 05:17:05;;;;;;;88.07;37.28;;;7.40;99.90;;;;;;5046935;28;20052;-76
2021/10/29 05:19:31;;;;;;;86.97;37.58;;;7.40;99.90;;;;;;5043062;28;20045;-77
2021/10/29 05:21:58;;;;;;;95.53;40.25;;;7.30;99.90;;;;;;5044354;28;20454;-76
2021/10/29 05:24:25;;;;;;;104.53;44.13;;;7.30;99.90;;;;;;5045423;28;20495;-76
2021/10/29 05:26:52;;;;;;;104.15;41.70;;;7.30;99.90;;;;;;5028703;28;20080;-77
2021/10/29 05:29:18;;;;;;;109.70;42.22;;;7.20;99.90;;;;;;5027205;28;20053;-78
2021/10/29 05:31:46;;;;;;;120.57;45.88;;;7.20;99.90;;;;;;5026142;28;20213;-76
2021/10/29 05:34:13;;;;;;;112.22;44.70;;;7.10;99.90;;;;;;5024159;28;20060;-75
2021/10/29 05:36:40;;;;;;;121.68;47.90;;;7.10;99.90;;;;;;5023738;28;20049;-75
2021/10/29 05:39:07;;;;;;;128.07;49.22;;;7.10;99.90;;;;;;5035547;28;20411;-76
2021/10/29 05:41:34;;;;;;;144.90;49.45;;;7.10;99.90;;;;;;5045087;28;20415;-77
2021/10/29 05:44:01;;;;;;;130.25;49.03;;;7.00;99.90;;;;;;5027831;28;20161;-75
2021/10/29 05:46:31;;;;;;;142.35;50.80;;;7.10;99.90;;;;;;5026641;28;20473;-75
2021/10/29 05:48:58;;;;;;;149.02;54.95;;;7.00;99.90;;;;;;5027537;28;20098;-75
2021/10/29 05:51:27;;;;;;;143.32;51.60;;;7.00;99.90;;;;;;5038262;28;20053;-75
2021/10/29 05:54:08;;;;;;;141.45;50.22;;;7.00;99.90;;;;;;5044802;28;20060;-76
2021/10/29 05:56:36;;;;;;;148.68;54.05;;;7.10;99.90;;;;;;5023377;28;20045;-76
2021/10/29 05:59:05;;;;;;;144.20;54.13;;;7.10;99.90;;;;;;5025978;28;20046;-77
2021/10/29 06:01:33;;;;;;;156.85;54.30;;;7.10;99.90;;;;;;5025373;28;20037;-76
2021/10/29 06:04:00;;;;;;;152.05;56.42;;;7.10;99.90;;;;;;5025417;28;20080;-75
2021/10/29 06:06:27;;;;;;;160.23;59.03;;;7.00;99.90;;;;;;5008110;28;20621;-77
2021/10/29 06:08:54;;;;;;;163.07;55.20;;;7.10;99.90;;;;;;5046898;28;20381;-77
2021/10/29 06:11:21;;;;;;;172.10;59.13;;;7.10;99.90;;;;;;5026855;28;20057;-75
2021/10/29 06:13:48;;;;;;;170.73;60.28;;;7.10;99.90;;;;;;5042098;28;20075;-80
2021/10/29 06:16:15;;;;;;;186.70;64.40;;;7.10;99.90;;;;;;5036459;28;20057;-75
2021/10/29 06:18:42;;;;;;;177.60;59.58;;;7.10;99.90;;;;;;5048087;28;20048;-76
2021/10/29 06:21:10;;;;;;;183.88;64.00;;;7.10;99.90;;;;;;5046686;28;20538;-78
2021/10/29 06:24:01;;;;;;;199.05;64.95;;;7.10;99.90;;;;;;5013449;28;20395;-75
2021/10/29 06:26:26;;;;;;;205.02;67.45;;;7.10;99.90;;;;;;5028028;28;20356;-76
2021/10/29 06:28:54;;;;;;;191.85;66.93;;;7.20;99.90;;;;;;5042676;28;20045;-77
2021/10/29 06:31:21;;;;;;;192.52;65.50;;;7.20;99.90;;;;;;5026429;28;20511;-78
2021/10/29 06:33:48;;;;;;;204.30;66.60;;;7.20;99.90;;;;;;5034560;28;20598;-77
2021/10/29 06:36:15;;;;;;;175.82;65.57;;;7.30;99.90;;;;;;5028922;28;20056;-78
2021/10/29 06:38:43;;;;;;;183.23;64.72;;;7.40;99.90;;;;;;5028056;28;20045;-81
2021/10/29 06:41:10;;;;;;;189.77;63.25;;;7.40;99.90;;;;;;5009500;28;20040;-78
2021/10/29 06:46:24;;;;;;;179.10;63.17;;;7.40;99.90;;;;;;5049128;28;20049;-76
2021/10/29 06:49:08;;;;;;;181.30;61.92;;;7.50;99.90;;;;;;5030764;28;20048;-78
2021/10/29 07:00:18;;;;;;;160.57;58.10;;;7.50;99.90;;;;;;5036999;28;20091;-78
2021/10/29 07:03:24;;;;;;;153.30;58.08;;;7.50;99.90;;;;;;5036379;28;20064;-78
2021/10/29 07:41:20;;;;;;;112.38;48.53;;;7.70;99.90;;;;;;5046756;28;20176;-79
2021/10/29 07:43:52;;;;;;;111.47;49.25;;;7.60;99.90;;;;;;5030019;28;20045;-76
2021/10/29 07:46:19;;;;;;;116.50;49.53;;;7.70;99.90;;;;;;5029430;28;20049;-78
2021/10/29 07:48:47;;;;;;;113.30;48.83;;;7.70;99.90;;;;;;5029741;28;20051;-78
2021/10/29 07:51:14;;;;;;;101.28;45.92;;;7.70;99.90;;;;;;5028935;28;20041;-76
2021/10/29 07:53:43;;;;;;;104.55;47.55;;;7.80;99.90;;;;;;5012779;28;20072;-77
2021/10/29 07:56:10;;;;;;;101.30;44.78;;;7.80;99.90;;;;;;5026047;28;20041;-77
2021/10/29 07:58:37;;;;;;;102.43;46.20;;;7.80;99.90;;;;;;5046781;28;20060;-77
2021/10/29 08:01:04;;;;;;;95.07;44.30;;;7.80;99.90;;;;;;5032876;28;20064;-76
2021/10/29 08:03:31;;;;;;;106.28;45.10;;;7.90;99.90;;;;;;5027591;28;20378;-78
2021/10/29 08:05:58;;;;;;;90.20;42.00;;;7.90;99.90;;;;;;5043585;28;20045;-77
2021/10/29 08:08:26;;;;;;;88.32;41.15;;;8.00;99.90;;;;;;5045646;28;20049;-77
2021/10/29 08:10:53;;;;;;;77.88;40.35;;;8.10;99.90;;;;;;5009908;28;20048;-76
2021/10/29 08:13:20;;;;;;;85.07;41.22;;;8.20;99.90;;;;;;5046934;28;20053;-78
2021/10/29 08:15:52;;;;;;;80.85;37.42;;;8.40;99.90;;;;;;5028904;28;20052;-79
2021/10/29 08:18:21;;;;;;;73.18;38.55;;;8.50;99.90;;;;;;5046849;28;20099;-79
2021/10/29 08:20:48;;;;;;;78.10;39.60;;;8.50;99.90;;;;;;5045439;28;20106;-77
2021/10/29 08:23:14;;;;;;;65.35;34.90;;;8.50;99.90;;;;;;5040757;28;20163;-77
2021/10/29 08:25:41;;;;;;;66.85;35.60;;;8.60;99.90;;;;;;5027581;28;20135;-77
2021/10/29 08:28:08;;;;;;;56.30;29.13;;;8.50;99.90;;;;;;5019099;28;20048;-76
2021/10/29 08:30:52;;;;;;;62.75;33.22;;;8.60;99.90;;;;;;5029067;28;20422;-77
2021/10/29 08:33:20;;;;;;;58.15;31.05;;;8.60;99.90;;;;;;5011013;28;20131;-78
2021/10/29 08:35:49;;;;;;;60.55;31.98;;;8.70;99.90;;;;;;5027165;28;20431;-76
2021/10/29 08:38:25;;;;;;;57.92;29.60;;;8.70;99.90;;;;;;5007489;28;20487;-78
2021/10/29 08:40:54;;;;;;;61.70;33.15;;;8.70;99.90;;;;;;5041297;28;20045;-77
2021/10/29 08:43:21;;;;;;;62.75;34.60;;;8.70;99.90;;;;;;5028722;28;20049;-76
2021/10/29 08:45:48;;;;;;;51.85;30.75;;;8.70;99.90;;;;;;5046671;28;20091;-78
2021/10/29 08:48:15;;;;;;;52.55;28.90;;;8.80;99.90;;;;;;5028973;28;20040;-75
2021/10/29 08:50:42;;;;;;;54.53;30.52;;;8.80;99.90;;;;;;5041083;28;20041;-76
2021/10/29 08:53:09;;;;;;;53.90;32.00;;;8.80;99.90;;;;;;5044718;28;20053;-76
2021/10/29 08:55:38;;;;;;;56.20;30.30;;;8.90;99.90;;;;;;5043712;28;20465;-75
2021/10/29 08:58:07;;;;;;;56.42;30.98;;;8.90;99.90;;;;;;5009726;28;20056;-77
2021/10/29 09:00:39;;;;;;;46.35;28.05;;;9.00;99.90;;;;;;5019786;28;20049;-75
2021/10/29 09:03:11;;;;;;;47.05;26.20;;;9.10;99.90;;;;;;5045424;28;20048;-76
2021/10/29 09:05:52;;;;;;;52.03;29.80;;;9.20;99.90;;;;;;5045512;28;20048;-76
2021/10/29 09:08:30;;;;;;;50.47;29.38;;;9.30;99.90;;;;;;5043492;28;20511;-75
2021/10/29 09:33:00;;;;;;;43.03;24.77;;;9.40;99.90;;;;;;5045850;28;20057;-76
2021/10/29 09:35:29;;;;;;;40.50;24.55;;;9.50;99.90;;;;;;5026617;28;20110;-75
2021/10/29 09:38:14;;;;;;;42.63;25.92;;;9.70;99.90;;;;;;5026229;28;20056;-76
2021/10/29 09:41:03;;;;;;;45.08;26.05;;;9.60;99.90;;;;;;5024300;28;20063;-79
2021/10/29 09:43:39;;;;;;;38.55;24.40;;;9.80;99.90;;;;;;5024635;28;20387;-78
2021/10/29 09:46:07;;;;;;;39.70;22.88;;;9.90;99.90;;;;;;5024460;28;20138;-78
2021/10/29 09:48:49;;;;;;;37.33;24.35;;;9.90;99.90;;;;;;5042929;28;20056;-78
2021/10/29 09:51:23;;;;;;;38.63;23.88;;;10.00;99.90;;;;;;5037770;28;20048;-78
2021/10/29 09:58:57;;;;;;;39.33;22.73;;;10.30;99.90;;;;;;5044596;28;20045;-75
2021/10/29 10:01:25;;;;;;;35.60;22.67;;;10.40;99.90;;;;;;5039947;28;20132;-77
2021/10/29 10:03:53;;;;;;;37.92;23.67;;;10.40;99.90;;;;;;5045496;28;20040;-76
2021/10/29 10:06:23;;;;;;;33.50;23.38;;;10.40;99.90;;;;;;5030416;28;20053;-79
2021/10/29 10:08:52;;;;;;;33.65;22.02;;;10.50;99.90;;;;;;5027597;28;20055;-76
2021/10/29 10:11:19;;;;;;;33.92;23.80;;;10.50;99.90;;;;;;5026571;28;20060;-76
2021/10/29 10:13:48;;;;;;;32.92;21.33;;;10.60;99.90;;;;;;5010308;28;20442;-75
2021/10/29 10:16:16;;;;;;;33.10;20.83;;;10.70;99.90;;;;;;5010166;28;20049;-76
2021/10/29 10:18:44;;;;;;;30.77;19.25;;;10.90;99.90;;;;;;5047924;28;20769;-78
2021/10/29 10:21:16;;;;;;;31.75;20.45;;;11.00;99.90;;;;;;5011929;28;20052;-77
2021/10/29 10:23:47;;;;;;;30.65;21.63;;;11.10;99.90;;;;;;5031702;28;20507;-77
2021/10/29 10:26:38;;;;;;;31.52;20.65;;;11.20;99.90;;;;;;5014545;28;20053;-77
2021/10/29 10:48:13;;;;;;;25.65;20.48;;;12.10;99.90;;;;;;5048564;28;20139;-78
2021/10/29 10:50:45;;;;;;;27.38;20.95;;;12.00;99.90;;;;;;5029738;28;20053;-76
2021/10/29 10:53:20;;;;;;;26.15;20.48;;;12.00;99.90;;;;;;5038541;28;20200;-77
2021/10/29 10:56:07;;;;;;;;;;;11.90;99.90;;;;;;5025760;28;20362;-77
2021/10/29 10:58:49;;;;;;;;;;;11.90;99.90;;;;;;5031433;28;19925;-77
2021/10/29 11:01:40;;;;;;;30.23;20.77;;;11.80;99.90;;;;;;5048334;28;19925;-77
2021/10/29 11:07:13;;;;;;;25.92;19.33;;;11.90;99.90;;;;;;5030656;28;20535;-77
2021/10/29 11:12:44;;;;;;;26.75;20.25;;;11.80;99.90;;;;;;5028908;28;20128;-76
2021/10/29 11:15:25;;;;;;;25.10;20.17;;;11.70;99.90;;;;;;5013733;28;20052;-75
2021/10/29 11:18:03;;;;;;;27.25;20.17;;;11.80;99.90;;;;;;5027145;28;20477;-78
2021/10/29 11:20:41;;;;;;;29.23;20.80;;;11.70;99.90;;;;;;5047407;28;20319;-75
2021/10/29 11:23:21;;;;;;;28.42;21.67;;;11.60;99.90;;;;;;5029886;28;20543;-76
2021/10/29 11:26:03;;;;;;;26.55;20.52;;;11.60;99.90;;;;;;5014401;28;20084;-77
2021/10/29 11:28:46;;;;;;;28.45;19.70;;;11.50;99.90;;;;;;5029688;28;20447;-77
2021/10/29 11:31:16;;;;;;;27.23;20.25;;;11.50;99.90;;;;;;5024903;28;20041;-76
2021/10/29 11:33:45;;;;;;;29.08;18.58;;;11.50;99.90;;;;;;5047720;28;20119;-76
2021/10/29 11:36:14;;;;;;;27.13;21.10;;;11.50;99.90;;;;;;5012356;28;20060;-77
2021/10/29 11:38:44;;;;;;;25.65;19.05;;;11.60;99.90;;;;;;5048476;28;20115;-76
2021/10/29 11:41:14;;;;;;;25.58;19.95;;;11.60;99.90;;;;;;5036978;28;20128;-77
2021/10/29 11:43:42;;;;;;;26.58;19.73;;;11.70;99.90;;;;;;5032067;28;20060;-78
2021/10/29 11:46:11;;;;;;;24.67;18.50;;;11.70;99.90;;;;;;5031494;28;20527;-76
2021/10/29 11:48:50;;;;;;;22.23;18.67;;;11.70;99.90;;;;;;5047676;28;20052;-76
2021/10/29 11:51:19;;;;;;;24.08;18.85;;;11.70;99.90;;;;;;5028024;28;20418;-75
2021/10/29 11:53:52;;;;;;;22.33;18.60;;;11.80;99.90;;;;;;5003859;28;20056;-76
2021/10/29 11:56:33;;;;;;;23.23;19.60;;;11.90;99.90;;;;;;5030238;28;20048;-77
2021/10/29 12:07:33;;;;;;;23.98;19.90;;;12.10;99.90;;;;;;5030882;28;20052;-77
2021/10/29 12:10:11;;;;;;;27.80;19.92;;;12.00;99.90;;;;;;5049901;28;20041;-77
2021/10/29 12:12:43;;;;;;;26.52;19.30;;;12.00;99.90;;;;;;5048828;28;20231;-77
2021/10/29 12:15:17;;;;;;;23.88;19.65;;;12.00;99.90;;;;;;5048815;28;20064;-77
2021/10/29 12:18:01;;;;;;;25.58;20.70;;;12.00;99.90;;;;;;5031240;28;20052;-78
2021/10/29 12:20:43;;;;;;;25.00;18.92;;;11.90;99.90;;;;;;5047981;28;20332;-77
2021/10/29 12:23:21;;;;;;;26.50;19.67;;;11.90;99.90;;;;;;5049113;28;20263;-78
2021/10/29 12:31:21;;;;;;;22.20;19.15;;;12.00;99.90;;;;;;5030969;28;20089;-78
2021/10/29 12:51:54;;;;;;;19.88;17.50;;;12.60;99.90;;;;;;5027319;28;20060;-77
2021/10/29 12:59:14;;;;;;;22.70;17.17;;;12.50;99.90;;;;;;5047911;28;20057;-74
2021/10/29 13:01:57;;;;;;;21.83;16.98;;;12.50;99.90;;;;;;5027787;28;20049;-74
2021/10/29 13:04:38;;;;;;;20.75;18.17;;;12.40;99.90;;;;;;5046512;28;20057;-76
2021/10/29 13:07:06;;;;;;;23.73;18.63;;;12.40;99.90;;;;;;5028656;28;20041;-76
2021/10/29 13:09:35;;;;;;;26.90;18.30;;;12.40;99.90;;;;;;5029398;28;20041;-75
2021/10/29 13:12:21;;;;;;;21.52;17.23;;;12.30;99.90;;;;;;5046956;28;20483;-76
2021/10/29 13:14:59;;;;;;;22.50;17.85;;;12.20;99.90;;;;;;5030329;28;20458;-75
2021/10/29 13:17:31;;;;;;;24.30;19.10;;;12.20;99.90;;;;;;5027287;28;20119;-76
2021/10/29 13:52:46;;;;;;;23.38;18.30;;;12.30;99.90;;;;;;5047718;28;19932;-74
2021/10/29 13:55:33;;;;;;;21.55;17.55;;;12.30;99.90;;;;;;5031335;28;20072;-74
2021/10/29 14:30:23;;;;;;;18.30;15.07;;;12.10;99.90;;;;;;5045437;28;20059;-75
2021/10/29 14:32:55;;;;;;;20.15;16.70;;;12.20;99.90;;;;;;5011821;28;20045;-75
2021/10/29 14:35:32;;;;;;;21.90;15.80;;;12.20;99.90;;;;;;5044593;28;20150;-74
2021/10/29 14:40:38;;;;;;;20.67;14.63;;;12.30;99.90;;;;;;5043819;28;20116;-75
2021/10/29 14:44:13;;;;;;;19.83;15.30;;;12.30;99.90;;;;;;5027689;28;20110;-75
2021/10/29 14:48:58;;;;;;;18.55;14.10;;;12.30;99.90;;;;;;5044176;28;20106;-75
2021/10/29 15:02:31;;;;;;;24.80;17.52;;;12.10;99.90;;;;;;5023217;28;20124;-75
2021/10/29 15:16:22;;;;;;;23.95;17.90;;;12.20;99.90;;;;;;5044336;28;20051;-74
2021/10/29 15:27:19;;;;;;;18.45;14.85;;;12.40;99.90;;;;;;5048387;28;19920;-74
2021/10/29 15:45:51;;;;;;;18.20;14.95;;;12.30;99.90;;;;;;5031062;28;20109;-74
2021/10/29 15:48:22;;;;;;;18.38;14.35;;;12.30;99.90;;;;;;5047799;28;20060;-74
2021/10/29 15:50:48;;;;;;;20.35;15.82;;;12.30;99.90;;;;;;5047096;28;20522;-75
2021/10/29 15:53:15;;;;;;;23.95;17.55;;;12.30;99.90;;;;;;5029101;28;20052;-75
2021/10/29 15:55:49;;;;;;;18.88;15.32;;;12.20;99.90;;;;;;5014212;28;20053;-75
2021/10/29 15:58:28;;;;;;;27.10;18.63;;;12.20;99.90;;;;;;5021105;28;20063;-75
2021/10/29 16:17:12;;;;;;;28.67;18.25;;;11.80;99.90;;;;;;5040128;28;20562;-75
2021/10/29 16:19:44;;;;;;;27.58;18.35;;;11.80;99.90;;;;;;5024164;28;20057;-76
2021/10/29 16:22:29;;;;;;;24.10;17.45;;;11.80;99.90;;;;;;5010118;28;20081;-75
2021/10/29 16:25:00;;;;;;;26.25;17.50;;;11.70;99.90;;;;;;5035934;28;20123;-75
2021/10/29 16:27:37;;;;;;;29.10;19.00;;;11.70;99.90;;;;;;5026252;28;20049;-75
2021/10/29 16:30:05;;;;;;;28.50;19.38;;;11.60;99.90;;;;;;5031593;28;20119;-75
2021/10/29 16:35:18;;;;;;;29.00;19.73;;;11.50;99.90;;;;;;5037166;28;20056;-76
2021/10/29 16:37:47;;;;;;;32.10;19.75;;;11.50;99.90;;;;;;5043219;28;20661;-75
2021/10/29 16:40:14;;;;;;;31.92;18.88;;;11.50;99.90;;;;;;5009530;28;20111;-75
2021/10/29 16:42:43;;;;;;;27.67;19.33;;;11.40;99.90;;;;;;5027788;28;20463;-75
2021/10/29 16:45:12;;;;;;;48.67;32.03;;;11.40;99.90;;;;;;5039471;28;20053;-74
2021/10/29 16:47:41;;;;;;;39.90;27.13;;;11.40;99.90;;;;;;5046527;28;20111;-77
2021/10/29 16:50:10;;;;;;;41.78;25.90;;;11.30;99.90;;;;;;5014340;28;20527;-76
2021/10/29 16:52:38;;;;;;;44.80;26.00;;;11.30;99.90;;;;;;5021512;28;20053;-75
2021/10/29 16:55:06;;;;;;;63.20;35.60;;;11.30;99.90;;;;;;5032349;28;20122;-74
2021/10/29 16:57:38;;;;;;;33.20;23.13;;;11.20;99.90;;;;;;5025260;28;20181;-75
2021/10/29 17:00:08;;;;;;;37.65;22.45;;;11.20;99.90;;;;;;5026024;28;20065;-74
2021/10/29 17:02:35;;;;;;;28.77;19.80;;;11.20;99.90;;;;;;5024765;28;20070;-74
2021/10/29 17:05:02;;;;;;;63.90;33.80;;;11.20;99.90;;;;;;5020496;28;20118;-74
2021/10/29 17:07:30;;;;;;;54.88;31.10;;;11.10;99.90;;;;;;5030591;28;20041;-75
2021/10/29 17:09:57;;;;;;;50.53;30.40;;;11.10;99.90;;;;;;5045033;28;20088;-75
2021/10/29 17:12:24;;;;;;;46.53;29.42;;;11.10;99.90;;;;;;5026216;28;20547;-76
2021/10/29 17:14:51;;;;;;;39.72;28.27;;;11.10;99.90;;;;;;5035255;28;20048;-76
2021/10/29 17:17:20;;;;;;;31.70;21.58;;;11.10;99.90;;;;;;5043056;28;20095;-75
2021/10/29 17:19:52;;;;;;;29.08;19.50;;;11.10;99.90;;;;;;5022610;28;20613;-75